Time;durP1;ratioP1;P1;durP2;ratioP2;P2;SDS_P1;SDS_P2;PMS_P1;PMS_P2;Temp;Humidity;BMP_temperature;BMP_pressure;BME280_temperature;BME280_humidity;BME280_pressure;Samples;Min_cycle;Max_cycle;Signal;HPM_P1;HPM_P2
2022/04/07 00:01:47;;;;;;;11.40;6.07;;;9.30;99.90;;;;;;4880407;29;20048;-88
2022/04/07 00:04:18;;;;;;;10.70;5.73;;;10.00;99.90;;;;;;4880912;29;20049;-87
2022/04/07 00:06:52;;;;;;;11.35;6.72;;;9.20;99.90;;;;;;4897250;29;20492;-87
2022/04/07 00:09:21;;;;;;;12.13;6.40;;;9.10;99.90;;;;;;4880650;29;20171;-87
2022/04/07 00:11:47;;;;;;;13.00;7.00;;;10.00;99.90;;;;;;4895154;29;20064;-87
2022/04/07 00:14:12;;;;;;;13.83;7.50;;;9.50;99.90;;;;;;4932700;23;20056;-86
2022/04/07 00:16:38;;;;;;;12.77;7.07;;;9.00;99.90;;;;;;4918509;29;20518;-87
2022/04/07 00:19:07;;;;;;;14.10;8.15;;;8.90;99.90;;;;;;4917753;29;20050;-86
2022/04/07 00:21:35;;;;;;;16.73;8.47;;;8.20;99.90;;;;;;4918078;29;20056;-86
2022/04/07 00:24:14;;;;;;;16.90;8.48;;;8.80;99.90;;;;;;4935286;29;20043;-87
2022/04/07 00:26:46;;;;;;;13.70;8.90;;;8.80;99.90;;;;;;4934769;29;20520;-86
2022/04/07 00:29:11;;;;;;;14.33;8.57;;;8.60;99.90;;;;;;4935316;29;20047;-86
2022/04/07 00:31:53;;;;;;;16.13;9.23;;;8.50;99.90;;;;;;4918395;29;20052;-87
2022/04/07 00:34:23;;;;;;;14.33;8.83;;;8.30;99.90;;;;;;4918087;29;20452;-86
2022/04/07 00:36:49;;;;;;;13.67;8.13;;;8.50;99.90;;;;;;4917480;29;20035;-88
2022/04/07 00:39:14;;;;;;;14.67;8.73;;;8.70;99.90;;;;;;4935346;29;20044;-86
2022/04/07 00:41:42;;;;;;;13.88;7.97;;;8.70;99.90;;;;;;4917414;29;20066;-86
2022/04/07 00:44:08;;;;;;;13.77;8.27;;;8.70;99.90;;;;;;4918090;29;20056;-86
2022/04/07 00:46:40;;;;;;;13.87;8.73;;;8.70;99.90;;;;;;4917544;29;20040;-86
2022/04/07 00:49:09;;;;;;;16.77;8.30;;;8.80;99.90;;;;;;4934843;29;20120;-86
2022/04/07 00:51:38;;;;;;;14.57;8.73;;;9.00;99.90;;;;;;4934799;29;20052;-86
2022/04/07 00:54:03;;;;;;;14.93;8.60;;;8.70;99.90;;;;;;4934478;29;20044;-86
2022/04/07 00:56:30;;;;;;;16.17;8.73;;;8.70;99.90;;;;;;4934887;29;20130;-87
2022/04/07 00:58:57;;;;;;;15.73;9.40;;;8.80;99.90;;;;;;4934734;29;20568;-86
2022/04/07 01:01:27;;;;;;;13.83;8.70;;;9.90;99.90;;;;;;4917231;29;20047;-88
2022/04/07 01:03:54;;;;;;;15.60;8.80;;;9.50;99.90;;;;;;4934737;29;20059;-86
2022/04/07 01:06:19;;;;;;;14.07;7.70;;;8.70;99.90;;;;;;4935104;29;20052;-86
2022/04/07 01:08:46;;;;;;;14.13;7.23;;;8.80;99.90;;;;;;4917686;29;20047;-86
2022/04/07 01:11:12;;;;;;;14.53;8.50;;;9.10;99.90;;;;;;4921395;29;20046;-86
2022/04/07 01:13:50;;;;;;;15.73;7.83;;;8.80;99.90;;;;;;4938294;29;20060;-86
2022/04/07 01:16:25;;;;;;;13.53;7.90;;;9.00;99.90;;;;;;4920345;29;20059;-86
2022/04/07 01:18:51;;;;;;;13.10;7.80;;;8.80;99.90;;;;;;4920502;29;20043;-86
2022/04/07 01:21:17;;;;;;;13.73;7.53;;;8.60;99.90;;;;;;4930559;23;20056;-86
2022/04/07 01:24:10;;;;;;;13.87;8.40;;;8.70;99.90;;;;;;4918623;29;20041;-86
2022/04/07 01:26:41;;;;;;;16.43;7.80;;;9.20;99.90;;;;;;4899696;29;20185;-86
2022/04/07 01:29:15;;;;;;;14.03;7.20;;;8.60;99.90;;;;;;4918298;29;20048;-86
2022/04/07 01:31:42;;;;;;;13.67;7.20;;;8.70;99.90;;;;;;4918956;29;20131;-87
2022/04/07 01:34:11;;;;;;;13.23;7.10;;;8.70;99.90;;;;;;4919016;29;20100;-87
2022/04/07 01:36:40;;;;;;;15.10;7.47;;;8.70;99.90;;;;;;4918677;29;20041;-86
2022/04/07 01:39:07;;;;;;;13.07;7.53;;;8.70;99.90;;;;;;4918252;29;20048;-86
2022/04/07 01:41:38;;;;;;;16.17;7.43;;;8.70;99.90;;;;;;4901471;29;20060;-86
2022/04/07 01:44:19;;;;;;;17.23;7.17;;;8.70;99.90;;;;;;4918178;29;20040;-87
2022/04/07 01:46:47;;;;;;;12.80;6.23;;;9.20;99.90;;;;;;4918503;29;20047;-87
2022/04/07 01:49:12;;;;;;;11.10;6.00;;;9.90;99.90;;;;;;4918729;29;20048;-86
2022/04/07 01:51:44;;;;;;;12.33;5.80;;;8.80;99.90;;;;;;4918212;29;20127;-87
2022/04/07 01:54:17;;;;;;;13.17;6.03;;;8.80;99.90;;;;;;4901418;29;20162;-86
2022/04/07 01:56:50;;;;;;;13.53;5.60;;;9.00;99.90;;;;;;4917919;29;20135;-86
2022/04/07 01:59:28;;;;;;;11.18;5.82;;;8.50;99.90;;;;;;4901507;29;20044;-86
2022/04/07 02:02:12;;;;;;;12.17;5.87;;;8.50;99.90;;;;;;4917843;29;20492;-86
2022/04/07 02:04:58;;;;;;;10.45;5.00;;;9.80;99.90;;;;;;4917571;29;20097;-86
2022/04/07 02:07:32;;;;;;;13.40;5.47;;;9.90;99.90;;;;;;4901105;29;20407;-87
2022/04/07 02:10:04;;;;;;;11.10;5.53;;;8.40;99.90;;;;;;4901425;29;20064;-86
2022/04/07 02:12:30;;;;;;;10.55;5.20;;;8.60;99.90;;;;;;4901023;29;20052;-86
2022/04/07 02:15:06;;;;;;;11.07;5.23;;;8.50;99.90;;;;;;4900800;29;20188;-87
2022/04/07 02:17:38;;;;;;;12.70;5.70;;;8.60;99.90;;;;;;4918222;29;20067;-86
2022/04/07 02:20:18;;;;;;;14.20;6.00;;;8.60;99.90;;;;;;4917109;29;20056;-87
2022/04/07 02:22:48;;;;;;;11.43;5.60;;;8.90;99.90;;;;;;4917892;29;20114;-87
2022/04/07 02:25:23;;;;;;;14.30;5.73;;;8.30;99.90;;;;;;4900462;29;20167;-86
2022/04/07 02:27:50;;;;;;;12.40;5.70;;;9.00;99.90;;;;;;4917819;29;20506;-87
2022/04/07 02:30:15;;;;;;;12.70;5.97;;;8.40;99.90;;;;;;4918166;29;20040;-86
2022/04/07 02:32:41;;;;;;;14.57;6.03;;;8.50;99.90;;;;;;4917622;29;20079;-87
2022/04/07 02:35:17;;;;;;;15.73;6.50;;;8.40;99.90;;;;;;4900693;29;20063;-86
2022/04/07 02:37:43;;;;;;;15.50;6.70;;;7.60;99.90;;;;;;4917548;29;20052;-86
2022/04/07 02:40:08;;;;;;;16.67;8.03;;;8.30;99.90;;;;;;4900216;29;20044;-86
2022/04/07 02:42:35;;;;;;;12.73;7.10;;;8.40;99.90;;;;;;4917797;29;20044;-86
2022/04/07 02:45:01;;;;;;;15.63;6.93;;;8.40;99.90;;;;;;4900614;29;20131;-86
2022/04/07 02:47:35;;;;;;;16.60;8.73;;;8.40;99.90;;;;;;4917413;29;20164;-86
2022/04/07 02:50:02;;;;;;;15.00;6.97;;;8.40;99.90;;;;;;4917370;29;20044;-86
2022/04/07 02:52:28;;;;;;;14.80;6.83;;;8.40;99.90;;;;;;4917790;29;20043;-86
2022/04/07 02:54:54;;;;;;;16.13;6.40;;;8.40;99.90;;;;;;4916585;29;20048;-87
2022/04/07 02:57:23;;;;;;;12.80;6.37;;;8.40;99.90;;;;;;4900316;29;20047;-87
2022/04/07 02:59:50;;;;;;;15.30;6.73;;;9.90;99.90;;;;;;4917382;29;20047;-87
2022/04/07 03:02:15;;;;;;;13.37;6.70;;;8.60;99.90;;;;;;4899760;29;20516;-86
2022/04/07 03:04:41;;;;;;;16.57;7.13;;;8.60;99.90;;;;;;4900019;29;20087;-87
2022/04/07 03:07:06;;;;;;;14.43;6.03;;;10.00;99.90;;;;;;4900056;29;20044;-87
2022/04/07 03:09:32;;;;;;;15.30;7.03;;;9.20;99.90;;;;;;4900280;29;20389;-86
2022/04/07 03:11:57;;;;;;;17.70;8.80;;;8.50;99.90;;;;;;4916557;29;20104;-86
2022/04/07 03:14:27;;;;;;;14.60;6.50;;;8.50;99.90;;;;;;4916637;29;20054;-86
2022/04/07 03:16:53;;;;;;;15.53;6.57;;;8.40;99.90;;;;;;4899964;29;20052;-86
2022/04/07 03:19:19;;;;;;;13.60;7.37;;;8.40;99.90;;;;;;4917096;29;20037;-86
2022/04/07 03:21:44;;;;;;;16.00;7.40;;;8.30;99.90;;;;;;4916087;29;20566;-86
2022/04/07 03:24:11;;;;;;;14.20;6.63;;;8.20;99.90;;;;;;4916745;29;20051;-86
2022/04/07 03:26:37;;;;;;;13.10;5.97;;;8.30;99.90;;;;;;4917215;29;20048;-87
2022/04/07 03:29:03;;;;;;;13.63;5.67;;;8.90;99.90;;;;;;4899612;29;20511;-86
2022/04/07 03:31:28;;;;;;;11.47;5.40;;;8.20;99.90;;;;;;4899847;29;20091;-87
2022/04/07 03:33:54;;;;;;;12.53;5.67;;;8.10;99.90;;;;;;4899750;29;20047;-86
2022/04/07 03:36:19;;;;;;;10.50;4.90;;;8.10;99.90;;;;;;4916356;29;20068;-87
2022/04/07 03:38:45;;;;;;;13.83;4.93;;;8.20;99.90;;;;;;4899326;29;20107;-87
2022/04/07 03:41:11;;;;;;;18.57;5.50;;;9.20;99.90;;;;;;4916564;29;20048;-87
2022/04/07 03:43:37;;;;;;;13.90;4.77;;;8.10;99.90;;;;;;4916316;29;20048;-88
2022/04/07 03:46:02;;;;;;;16.30;5.40;;;8.10;99.90;;;;;;4916513;29;20047;-86
2022/04/07 03:48:28;;;;;;;16.13;5.37;;;8.10;99.90;;;;;;4916895;29;20047;-88
2022/04/07 03:50:56;;;;;;;18.57;5.33;;;8.80;99.90;;;;;;4899204;29;20044;-87
2022/04/07 03:53:22;;;;;;;12.93;4.60;;;8.30;99.90;;;;;;4916948;29;20059;-87
2022/04/07 03:55:47;;;;;;;13.30;4.67;;;8.00;99.90;;;;;;4916221;29;20408;-89
2022/04/07 03:58:13;;;;;;;13.87;4.77;;;8.50;99.90;;;;;;4899300;29;20055;-88
2022/04/07 04:00:45;;;;;;;13.40;4.60;;;8.90;99.90;;;;;;4916475;29;22407;-88
2022/04/07 04:03:10;;;;;;;15.70;4.40;;;8.10;99.90;;;;;;4916683;29;20055;-87
2022/04/07 04:05:36;;;;;;;16.73;4.53;;;8.00;99.90;;;;;;4899082;29;20135;-88
2022/04/07 04:08:02;;;;;;;14.30;4.73;;;8.00;99.90;;;;;;4898634;29;20401;-87
2022/04/07 04:10:28;;;;;;;13.93;4.17;;;8.20;99.90;;;;;;4916095;29;20048;-87
2022/04/07 04:12:54;;;;;;;12.10;4.20;;;8.10;99.90;;;;;;4916477;29;20044;-87
2022/04/07 04:15:22;;;;;;;14.83;4.47;;;8.20;99.90;;;;;;4899030;29;20056;-86
2022/04/07 04:17:48;;;;;;;13.87;4.63;;;8.10;99.90;;;;;;4915955;29;20155;-87
2022/04/07 04:20:14;;;;;;;15.67;4.27;;;9.50;99.90;;;;;;4899239;29;20412;-90
2022/04/07 04:22:39;;;;;;;14.97;4.70;;;8.30;99.90;;;;;;4899228;29;20473;-88
2022/04/07 04:25:08;;;;;;;13.07;4.70;;;8.10;99.90;;;;;;4898574;29;20052;-87
2022/04/07 04:27:33;;;;;;;14.43;4.47;;;8.20;99.90;;;;;;4898829;29;20067;-87
2022/04/07 04:29:59;;;;;;;19.63;5.30;;;8.20;99.90;;;;;;4899049;29;20040;-87
2022/04/07 04:32:25;;;;;;;13.87;4.83;;;8.20;99.90;;;;;;4915687;29;20041;-87
2022/04/07 04:34:50;;;;;;;14.93;4.33;;;8.20;99.90;;;;;;4899052;29;20060;-88
2022/04/07 04:37:16;;;;;;;15.00;4.60;;;8.10;99.90;;;;;;4899541;29;20044;-88
2022/04/07 04:39:41;;;;;;;14.07;4.80;;;8.20;99.90;;;;;;4916165;29;20511;-87
2022/04/07 04:42:07;;;;;;;16.77;5.03;;;8.20;99.90;;;;;;4916207;29;20040;-90
2022/04/07 04:44:33;;;;;;;19.67;4.67;;;8.20;99.90;;;;;;4918297;29;20048;-87
2022/04/07 04:46:59;;;;;;;16.73;5.10;;;8.10;99.90;;;;;;4919209;29;20092;-87
2022/04/07 04:49:25;;;;;;;17.13;5.43;;;8.10;99.90;;;;;;4919962;29;20503;-88
2022/04/07 04:52:00;;;;;;;19.80;5.83;;;8.00;99.90;;;;;;4902268;29;20125;-88
2022/04/07 04:54:29;;;;;;;19.30;5.70;;;8.00;99.90;;;;;;4919544;29;20082;-88
2022/04/07 04:56:54;;;;;;;18.43;5.67;;;8.00;99.90;;;;;;4918993;29;20472;-86
2022/04/07 04:59:20;;;;;;;17.83;5.67;;;8.10;99.90;;;;;;4902834;29;20067;-87
2022/04/07 05:01:45;;;;;;;17.53;5.63;;;8.10;99.90;;;;;;4901854;29;20040;-87
2022/04/07 05:04:11;;;;;;;17.07;5.47;;;8.10;99.90;;;;;;4919398;29;20052;-87
2022/04/07 05:06:36;;;;;;;18.30;4.90;;;8.00;99.90;;;;;;4919601;29;20096;-88
2022/04/07 05:09:02;;;;;;;16.67;5.13;;;8.00;99.90;;;;;;4901914;29;20689;-87
2022/04/07 05:11:27;;;;;;;21.67;6.23;;;8.00;99.90;;;;;;4919400;29;20076;-87
2022/04/07 05:13:53;;;;;;;16.17;5.27;;;8.00;99.90;;;;;;4918916;29;20403;-88
2022/04/07 05:16:18;;;;;;;18.47;5.57;;;8.10;99.90;;;;;;4920137;29;20099;-86
2022/04/07 05:18:47;;;;;;;19.90;5.70;;;8.10;99.90;;;;;;4922804;29;20048;-87
2022/04/07 05:21:14;;;;;;;22.57;5.57;;;8.10;99.90;;;;;;4922927;29;20103;-88
2022/04/07 05:23:40;;;;;;;17.03;5.30;;;8.10;99.90;;;;;;4919212;29;20047;-87
2022/04/07 05:26:06;;;;;;;16.90;5.00;;;8.10;99.90;;;;;;4918665;29;20048;-87
2022/04/07 05:28:39;;;;;;;13.23;5.27;;;7.90;99.90;;;;;;4901782;29;20052;-87
2022/04/07 05:31:05;;;;;;;15.13;4.70;;;9.20;99.90;;;;;;4901874;29;20103;-87
2022/04/07 05:33:31;;;;;;;16.90;4.50;;;7.90;99.90;;;;;;4902699;29;20032;-87
2022/04/07 05:35:57;;;;;;;18.40;5.17;;;8.00;99.90;;;;;;4918371;29;20506;-87
2022/04/07 05:38:22;;;;;;;15.43;4.37;;;8.00;99.90;;;;;;4918773;29;20052;-87
2022/04/07 05:40:48;;;;;;;13.30;4.93;;;8.00;99.90;;;;;;4901874;29;20047;-87
2022/04/07 05:43:13;;;;;;;15.20;4.00;;;8.00;99.90;;;;;;4918891;29;20052;-88
2022/04/07 05:45:41;;;;;;;17.57;4.70;;;8.00;99.90;;;;;;4901691;29;20134;-87
2022/04/07 05:48:14;;;;;;;14.47;4.20;;;8.00;99.90;;;;;;4918722;29;20087;-87
2022/04/07 05:50:40;;;;;;;21.33;4.97;;;8.00;99.90;;;;;;4901460;29;20545;-87
2022/04/07 05:53:06;;;;;;;14.70;4.33;;;8.00;99.90;;;;;;4901423;29;20150;-87
2022/04/07 05:55:33;;;;;;;17.03;4.47;;;8.10;99.90;;;;;;4918462;29;20044;-87
2022/04/07 05:58:07;;;;;;;12.80;3.80;;;8.00;99.90;;;;;;4917666;29;20506;-87
2022/04/07 06:00:34;;;;;;;12.87;4.50;;;8.10;99.90;;;;;;4917937;29;20044;-87
2022/04/07 06:02:59;;;;;;;15.90;4.90;;;8.00;99.90;;;;;;4900620;29;20092;-88
2022/04/07 06:05:28;;;;;;;17.00;4.17;;;8.10;99.90;;;;;;4901022;29;20082;-87
2022/04/07 06:08:00;;;;;;;15.03;4.20;;;9.40;99.90;;;;;;4900990;29;20086;-89
2022/04/07 06:10:26;;;;;;;16.87;4.60;;;8.60;99.90;;;;;;4900440;29;20464;-89
2022/04/07 06:13:01;;;;;;;14.87;4.37;;;9.40;99.90;;;;;;4917529;29;20137;-88
2022/04/07 06:15:35;;;;;;;14.77;4.63;;;9.20;99.90;;;;;;4901397;29;20052;-89
2022/04/07 06:18:02;;;;;;;13.53;4.27;;;7.90;99.90;;;;;;4900741;29;20535;-88
2022/04/07 06:23:19;;;;;;;7.57;1.50;;;8.60;99.90;;;;;;4902493;29;20044;-94
2022/04/07 06:30:25;;;;;;;5.37;1.50;;;5.10;99.90;;;;;;4805671;29;20137;-94
2022/04/07 06:32:55;;;;;;;2.87;1.07;;;5.20;99.90;;;;;;4723761;30;20144;-96
2022/04/07 07:15:17;;;;;;;10.27;3.70;;;4.50;99.90;;;;;;5621548;23;20044;-89
2022/04/07 07:17:54;;;;;;;15.43;9.10;;;5.50;99.90;;;;;;4935937;29;20048;-90
2022/04/07 07:20:19;;;;;;;9.43;2.50;;;5.40;99.90;;;;;;4920156;29;20508;-88
2022/04/07 10:07:52;;;;;;;8.43;2.20;;;8.50;99.90;;;;;;4923974;29;20048;-94
2022/04/07 10:10:19;;;;;;;9.60;1.90;;;8.80;99.90;;;;;;4934689;29;20048;-95
2022/04/07 10:13:13;;;;;;;8.23;1.93;;;8.60;99.90;;;;;;4908095;29;20048;-96
2022/04/07 10:15:51;;;;;;;9.60;1.80;;;8.90;99.90;;;;;;5062441;23;20136;-96
2022/04/07 10:24:16;;;;;;;;;;;8.90;99.90;;;;;;4852793;29;20522;-96
2022/04/07 10:26:51;;;;;;;8.55;1.90;;;9.10;99.90;;;;;;4849207;29;19924;-94
2022/04/07 10:29:22;;;;;;;10.60;2.70;;;8.70;99.90;;;;;;4893643;29;20060;-93
2022/04/07 10:44:28;;;;;;;13.83;2.30;;;8.70;99.90;;;;;;4967422;23;20052;-95
2022/04/07 10:47:49;;;;;;;8.83;2.47;;;8.60;99.90;;;;;;4901929;29;20385;-93
2022/04/07 10:50:18;;;;;;;12.27;2.30;;;8.70;99.90;;;;;;4918511;29;20052;-92
2022/04/07 10:53:47;;;;;;;;;;;;;;;;;;;;;
2022/04/07 10:56:33;;;;;;;13.93;2.50;;;9.20;99.90;;;;;;4873406;29;20060;-93
2022/04/07 10:59:39;;;;;;;11.02;2.60;;;9.50;99.90;;;;;;4901669;29;20135;-92
2022/04/07 11:02:35;;;;;;;11.53;2.33;;;9.20;99.90;;;;;;4890956;29;20070;-95
2022/04/07 11:05:56;;;;;;;12.60;2.63;;;10.30;99.90;;;;;;4902583;29;20086;-95
2022/04/07 11:08:40;;;;;;;11.17;2.53;;;9.70;99.90;;;;;;4886169;29;20044;-93
2022/04/07 11:17:48;;;;;;;10.82;2.30;;;10.20;99.90;;;;;;4996397;23;20060;-91
2022/04/07 11:23:13;;;;;;;10.23;2.10;;;10.10;99.90;;;;;;4933082;23;20057;-91
2022/04/07 11:25:42;;;;;;;10.45;2.33;;;10.30;99.90;;;;;;4875256;29;20048;-90
2022/04/07 11:28:19;;;;;;;11.13;2.55;;;11.40;99.90;;;;;;4896528;29;20091;-90
2022/04/07 11:31:19;;;;;;;14.93;2.67;;;11.20;99.90;;;;;;4898754;29;20052;-92
2022/04/07 11:34:38;;;;;;;12.65;2.60;;;10.10;99.90;;;;;;4897917;29;20056;-92
2022/04/07 11:37:10;;;;;;;12.77;2.90;;;9.50;99.90;;;;;;4885890;29;20049;-89
2022/04/07 11:40:09;;;;;;;10.70;2.03;;;9.10;99.90;;;;;;4884227;29;20040;-92
2022/04/07 11:42:36;;;;;;;9.65;2.15;;;8.80;99.90;;;;;;4881794;29;20052;-94
2022/04/07 11:45:13;;;;;;;;;;;;;;;;;;;;;
2022/04/07 11:48:09;;;;;;;12.82;2.75;;;9.20;99.90;;;;;;4898282;29;20049;-92
2022/04/07 11:50:38;;;;;;;10.40;2.85;;;9.30;99.90;;;;;;4882220;29;20180;-92
2022/04/07 11:53:31;;;;;;;12.83;2.33;;;10.90;99.90;;;;;;4881626;29;20064;-89
2022/04/07 11:56:50;;;;;;;14.20;2.70;;;10.20;99.90;;;;;;4897629;29;20469;-85
2022/04/07 11:59:34;;;;;;;11.88;2.50;;;10.30;99.90;;;;;;4843423;29;20049;-87
2022/04/07 12:02:20;;;;;;;12.27;2.47;;;9.90;99.90;;;;;;4879940;29;20044;-87
2022/04/07 12:08:16;;;;;;;11.60;2.30;;;10.30;99.90;;;;;;4880282;29;20048;-88
2022/04/07 12:10:54;;;;;;;;;;;;;;;;;;;;;
2022/04/07 12:14:24;;;;;;;16.33;3.15;;;10.40;99.90;;;;;;4923247;23;20044;-89
2022/04/07 12:17:48;;;;;;;13.27;2.40;;;9.60;99.90;;;;;;4926676;23;20143;-88
2022/04/07 12:20:21;;;;;;;12.75;2.40;;;10.50;99.90;;;;;;4889207;29;20067;-87
2022/04/07 12:23:15;;;;;;;11.52;2.40;;;11.00;99.90;;;;;;4898520;29;20385;-87
2022/04/07 12:25:42;;;;;;;12.02;2.17;;;10.50;99.90;;;;;;4915957;29;20448;-88
2022/04/07 12:28:20;;;;;;;12.93;2.60;;;10.90;99.90;;;;;;4899617;29;20392;-87
2022/04/07 12:30:53;;;;;;;12.75;2.50;;;10.40;99.90;;;;;;4916729;29;20047;-89
2022/04/07 12:34:13;;;;;;;11.20;2.30;;;10.60;99.90;;;;;;4900083;29;20448;-86
2022/04/07 12:39:44;;;;;;;13.15;2.50;;;10.00;99.90;;;;;;4916375;29;20052;-88
2022/04/07 12:42:10;;;;;;;13.15;2.70;;;9.50;99.90;;;;;;4899189;29;20052;-87
2022/04/07 12:44:38;;;;;;;8.85;2.40;;;9.80;99.90;;;;;;4898985;29;20044;-87
2022/04/07 12:50:02;;;;;;;12.25;3.05;;;10.10;99.90;;;;;;4935983;23;20107;-88
2022/04/07 12:52:43;;;;;;;13.40;2.70;;;9.90;99.90;;;;;;4898478;29;20049;-85
2022/04/07 12:55:11;;;;;;;12.02;2.50;;;10.50;99.90;;;;;;4916238;29;20048;-86
2022/04/07 12:57:47;;;;;;;9.27;2.25;;;11.20;99.90;;;;;;4898903;29;20052;-87
2022/04/07 13:00:18;;;;;;;11.80;2.45;;;10.70;99.90;;;;;;4898638;29;20393;-89
2022/04/07 13:03:16;;;;;;;9.70;2.10;;;11.00;99.90;;;;;;4898696;29;20084;-89
2022/04/07 13:05:47;;;;;;;12.45;4.75;;;10.20;99.90;;;;;;4917052;29;20044;-87
2022/04/07 13:08:14;;;;;;;29.25;15.93;;;12.10;99.90;;;;;;4919349;29;20127;-84
2022/04/07 13:10:43;;;;;;;23.48;12.73;;;11.10;99.90;;;;;;4919518;29;20044;-87
2022/04/07 13:13:13;;;;;;;19.98;10.13;;;10.60;99.90;;;;;;4901980;29;20059;-87
2022/04/07 13:15:45;;;;;;;13.00;4.28;;;10.90;99.90;;;;;;4902613;29;20396;-88
2022/04/07 13:18:10;;;;;;;12.20;4.80;;;10.60;99.90;;;;;;4902530;29;20043;-85
2022/04/07 13:20:48;;;;;;;9.88;2.53;;;10.40;99.90;;;;;;4918856;29;20110;-86
2022/04/07 13:23:19;;;;;;;12.82;3.80;;;10.40;99.90;;;;;;4919029;29;20471;-88
2022/04/07 13:25:48;;;;;;;10.93;2.20;;;9.60;99.90;;;;;;4919164;29;20087;-85
2022/04/07 13:28:13;;;;;;;7.32;1.92;;;10.50;99.90;;;;;;4900898;29;20530;-86
2022/04/07 13:30:43;;;;;;;9.18;2.10;;;9.70;99.90;;;;;;4905715;29;20079;-92
2022/04/07 13:33:08;;;;;;;6.77;1.57;;;6.80;99.90;;;;;;4919346;29;20115;-91
2022/04/07 13:38:47;;;;;;;8.63;3.00;;;6.10;99.90;;;;;;4916146;29;20081;-90
2022/04/07 13:45:24;;;;;;;16.83;4.37;;;7.00;99.90;;;;;;4918635;29;20043;-92
2022/04/07 13:48:13;;;;;;;11.93;2.43;;;7.00;99.90;;;;;;4918107;29;20055;-91
2022/04/07 13:50:40;;;;;;;9.33;2.20;;;7.30;99.90;;;;;;4901520;29;20420;-90
2022/04/07 13:53:06;;;;;;;8.30;1.83;;;6.80;99.90;;;;;;4901766;29;20464;-90
2022/04/07 13:59:38;;;;;;;9.18;2.10;;;6.40;99.90;;;;;;4923138;23;20413;-91
2022/04/07 14:02:29;;;;;;;8.93;2.73;;;7.40;99.90;;;;;;4898136;29;20060;-89
2022/04/07 14:05:30;;;;;;;10.40;2.43;;;5.80;99.90;;;;;;4914470;23;20044;-90
2022/04/07 14:08:52;;;;;;;7.73;2.47;;;6.00;99.90;;;;;;4909368;23;20070;-89
2022/04/07 14:15:24;;;;;;;12.47;2.43;;;5.90;99.90;;;;;;4932123;29;20056;-92
2022/04/07 14:21:40;;;;;;;12.98;3.65;;;7.10;99.90;;;;;;4913865;29;20052;-90
2022/04/07 14:26:38;;;;;;;11.53;2.90;;;8.10;99.90;;;;;;4943068;29;20079;-89
2022/04/07 14:29:10;;;;;;;11.37;2.90;;;9.10;99.90;;;;;;4945091;29;20479;-91
2022/04/07 14:32:10;;;;;;;12.03;2.60;;;8.60;99.90;;;;;;4942350;23;20395;-91
2022/04/07 14:37:35;;;;;;;12.30;3.20;;;8.30;99.90;;;;;;4896830;29;20060;-92
2022/04/07 14:40:07;;;;;;;13.53;4.57;;;7.80;99.90;;;;;;4882774;29;20091;-91
2022/04/07 14:42:32;;;;;;;8.43;2.67;;;7.40;99.90;;;;;;4899015;29;20052;-90
2022/04/07 14:44:58;;;;;;;10.93;2.60;;;7.90;99.90;;;;;;4898494;29;20047;-89
2022/04/07 14:47:26;;;;;;;9.67;2.17;;;8.30;99.90;;;;;;4899445;29;20132;-92
2022/04/07 14:50:59;;;;;;;10.50;2.60;;;8.80;99.90;;;;;;4882325;29;20144;-94
2022/04/07 14:53:59;;;;;;;13.03;2.80;;;8.70;99.90;;;;;;4882594;29;20573;-92
2022/04/07 14:56:48;;;;;;;12.25;2.47;;;8.80;99.90;;;;;;4902506;29;20044;-90
2022/04/07 14:59:19;;;;;;;11.95;2.85;;;10.10;99.90;;;;;;4884835;29;20060;-89
2022/04/07 15:07:36;;;;;;;11.97;3.17;;;9.40;99.90;;;;;;4918592;23;20138;-91
2022/04/07 15:13:27;;;;;;;12.07;2.90;;;9.50;99.90;;;;;;4906438;29;20541;-93
2022/04/07 15:16:20;;;;;;;13.97;3.03;;;9.20;99.90;;;;;;4851232;29;20078;-92
2022/04/07 15:18:46;;;;;;;11.30;3.63;;;9.00;99.90;;;;;;4916517;29;20507;-91
2022/04/07 15:21:19;;;;;;;10.00;3.67;;;9.00;99.90;;;;;;4906972;29;20095;-91
2022/04/07 15:23:50;;;;;;;10.23;4.17;;;8.30;99.90;;;;;;4900692;29;20087;-95
2022/04/07 15:26:22;;;;;;;13.47;5.50;;;7.80;99.90;;;;;;4904207;29;20091;-93
2022/04/07 15:28:48;;;;;;;12.47;2.60;;;7.10;99.90;;;;;;4909612;23;20067;-90
2022/04/07 15:31:47;;;;;;;18.83;4.33;;;7.60;99.90;;;;;;4908691;29;20057;-95
2022/04/07 15:34:13;;;;;;;10.57;3.00;;;6.70;99.90;;;;;;4908852;29;20463;-95
2022/04/07 15:36:50;;;;;;;10.63;3.00;;;7.30;99.90;;;;;;4898324;29;20054;-94
2022/04/07 15:39:16;;;;;;;8.93;2.37;;;6.20;99.90;;;;;;4882353;29;20481;-93
2022/04/07 15:41:42;;;;;;;9.83;2.80;;;5.80;99.90;;;;;;4898207;29;20054;-91
2022/04/07 15:44:09;;;;;;;11.33;3.20;;;5.30;99.90;;;;;;4898261;29;20048;-90
2022/04/07 15:46:36;;;;;;;13.43;3.47;;;5.30;99.90;;;;;;4882470;29;20488;-89
2022/04/07 15:49:27;;;;;;;12.80;3.23;;;6.70;99.90;;;;;;4882850;29;20051;-93
2022/04/07 15:52:04;;;;;;;11.07;2.90;;;5.20;99.90;;;;;;4881749;29;20087;-95
2022/04/07 15:54:31;;;;;;;14.23;3.03;;;6.20;99.90;;;;;;4897743;29;20044;-87
2022/04/07 15:56:57;;;;;;;29.50;13.77;;;6.90;99.90;;;;;;4880636;29;20104;-91
2022/04/07 15:59:53;;;;;;;12.67;3.10;;;6.10;99.90;;;;;;4899459;29;20152;-96
2022/04/07 16:02:39;;;;;;;11.70;2.83;;;6.00;99.90;;;;;;4891030;29;20056;-93
2022/04/07 16:05:07;;;;;;;11.07;3.90;;;6.20;99.90;;;;;;4890872;29;20048;-92
2022/04/07 16:07:35;;;;;;;12.33;5.67;;;6.20;99.90;;;;;;4886744;29;20493;-93
2022/04/07 16:10:06;;;;;;;26.83;16.03;;;6.30;99.90;;;;;;4884818;29;20052;-95
2022/04/07 16:12:31;;;;;;;9.63;3.50;;;6.30;99.90;;;;;;4902680;29;20400;-95
2022/04/07 16:15:04;;;;;;;12.87;6.67;;;5.90;99.90;;;;;;4897490;29;20135;-93
2022/04/07 16:17:32;;;;;;;10.33;3.87;;;6.00;99.90;;;;;;4899278;29;20064;-95
2022/04/07 16:19:58;;;;;;;9.63;3.40;;;6.00;99.90;;;;;;4901156;29;20052;-93
2022/04/07 16:22:25;;;;;;;10.50;3.53;;;5.90;99.90;;;;;;4897781;29;20472;-92
2022/04/07 16:24:50;;;;;;;9.20;3.43;;;6.10;99.90;;;;;;4900447;29;20047;-95
2022/04/07 16:27:18;;;;;;;13.07;4.10;;;7.40;99.90;;;;;;4900592;29;20068;-96
2022/04/07 16:29:44;;;;;;;10.57;2.87;;;7.20;99.90;;;;;;4900910;29;20092;-95
2022/04/07 16:32:18;;;;;;;12.60;3.87;;;6.30;99.90;;;;;;4906482;29;20051;-95
2022/04/07 16:34:44;;;;;;;12.77;3.30;;;6.30;99.90;;;;;;4903898;29;20059;-92
2022/04/07 16:37:10;;;;;;;9.30;2.87;;;6.10;99.90;;;;;;4897279;29;20049;-93
2022/04/07 16:39:48;;;;;;;11.67;2.93;;;5.70;99.90;;;;;;4897720;29;20572;-94
2022/04/07 16:42:22;;;;;;;9.93;2.60;;;5.50;99.90;;;;;;4904884;29;20049;-94
2022/04/07 16:44:49;;;;;;;;;;;6.30;99.90;;;;;;4903214;29;20045;-93
2022/04/07 16:47:15;;;;;;;8.43;2.20;;;6.90;99.90;;;;;;4902424;29;19924;-96
2022/04/07 16:49:41;;;;;;;10.27;3.20;;;6.10;99.90;;;;;;4904414;29;20481;-94
2022/04/07 16:52:06;;;;;;;9.83;2.87;;;6.20;99.90;;;;;;4903166;29;20051;-96
2022/04/07 16:54:34;;;;;;;11.10;3.00;;;6.90;99.90;;;;;;4906672;29;20048;-93
2022/04/07 16:57:00;;;;;;;13.37;5.67;;;6.20;99.90;;;;;;4903361;29;20049;-93
2022/04/07 16:59:25;;;;;;;12.80;3.33;;;6.30;99.90;;;;;;4888303;29;20113;-95
2022/04/07 17:01:53;;;;;;;12.17;3.87;;;6.80;99.90;;;;;;4887653;29;20053;-91
2022/04/07 17:04:26;;;;;;;12.80;2.67;;;7.00;99.90;;;;;;4888323;29;20041;-96
2022/04/07 17:06:51;;;;;;;11.70;2.70;;;5.70;99.90;;;;;;4880636;29;20049;-95
2022/04/07 17:09:18;;;;;;;11.23;2.80;;;6.40;99.90;;;;;;4882118;29;20045;-96
2022/04/07 17:12:03;;;;;;;11.43;2.60;;;7.60;99.90;;;;;;4870002;29;20056;-93
2022/04/07 17:14:29;;;;;;;10.17;2.93;;;6.20;99.90;;;;;;4883005;29;20049;-92
2022/04/07 17:16:55;;;;;;;9.40;2.63;;;6.00;99.90;;;;;;4881835;29;20048;-90
2022/04/07 17:19:21;;;;;;;11.63;2.37;;;6.20;99.90;;;;;;4881025;29;20138;-89
2022/04/07 17:21:47;;;;;;;12.13;3.00;;;7.20;99.90;;;;;;4877768;29;20044;-88
2022/04/07 17:24:12;;;;;;;9.47;3.13;;;6.60;99.90;;;;;;4900215;29;20404;-90
2022/04/07 17:26:38;;;;;;;14.37;3.07;;;6.00;99.90;;;;;;4882367;29;20062;-91
2022/04/07 17:29:04;;;;;;;10.07;2.70;;;6.30;99.90;;;;;;4882995;29;20405;-89
2022/04/07 17:31:32;;;;;;;10.23;2.47;;;5.90;99.90;;;;;;4900038;29;20048;-88
2022/04/07 17:33:58;;;;;;;7.07;2.00;;;6.50;99.90;;;;;;4882521;29;20556;-91
2022/04/07 17:36:24;;;;;;;10.53;3.07;;;5.90;99.90;;;;;;4905382;29;20045;-90
2022/04/07 17:38:50;;;;;;;9.17;2.93;;;5.90;99.90;;;;;;4900243;29;20048;-92
2022/04/07 17:41:31;;;;;;;8.30;2.30;;;5.70;99.90;;;;;;4882321;29;20469;-89
2022/04/07 17:43:56;;;;;;;7.70;2.30;;;5.50;99.90;;;;;;4883318;29;20044;-89
2022/04/07 17:46:22;;;;;;;7.93;2.10;;;6.10;99.90;;;;;;4899902;29;20045;-89
2022/04/07 17:48:53;;;;;;;7.30;1.53;;;7.10;99.90;;;;;;4899903;29;20061;-92
2022/04/07 17:51:19;;;;;;;4.93;1.70;;;5.50;99.90;;;;;;4899639;29;20057;-91
2022/04/07 17:53:51;;;;;;;8.10;1.70;;;6.40;99.90;;;;;;4882004;29;20436;-90
2022/04/07 17:56:17;;;;;;;8.47;1.97;;;6.20;99.90;;;;;;4882673;29;20048;-90
2022/04/07 17:58:42;;;;;;;7.83;2.00;;;5.60;99.90;;;;;;4882662;29;20119;-89
2022/04/07 18:01:15;;;;;;;7.13;1.87;;;5.90;99.90;;;;;;4881933;29;20064;-90